sensor_id;sensor_type;location;lat;lon;timestamp;temperature;humidity
6841;DHT22;3458;53.678;14.080;2022-12-18T00:01:27;-4.90;99.90
6841;DHT22;3458;53.678;14.080;2022-12-18T00:03:54;-4.90;99.90
6841;DHT22;3458;53.678;14.080;2022-12-18T00:06:20;-4.90;99.90
6841;DHT22;3458;53.678;14.080;2022-12-18T00:08:47;-4.90;99.90
6841;DHT22;3458;53.678;14.080;2022-12-18T00:11:22;-4.90;99.90
6841;DHT22;3458;53.678;14.080;2022-12-18T00:13:49;-4.90;99.90
6841;DHT22;3458;53.678;14.080;2022-12-18T00:16:17;-5.00;99.90
6841;DHT22;3458;53.678;14.080;2022-12-18T00:18:46;-5.00;99.90
6841;DHT22;3458;53.678;14.080;2022-12-18T00:21:13;-4.90;99.90
6841;DHT22;3458;53.678;14.080;2022-12-18T00:23:40;-4.90;99.90
6841;DHT22;3458;53.678;14.080;2022-12-18T00:26:12;-4.90;99.90
6841;DHT22;3458;53.678;14.080;2022-12-18T00:28:40;-5.00;99.90
6841;DHT22;3458;53.678;14.080;2022-12-18T00:31:08;-5.00;99.90
6841;DHT22;3458;53.678;14.080;2022-12-18T00:33:34;-5.00;99.90
6841;DHT22;3458;53.678;14.080;2022-12-18T00:36:13;-5.10;99.90
6841;DHT22;3458;53.678;14.080;2022-12-18T00:38:40;-5.10;99.90
6841;DHT22;3458;53.678;14.080;2022-12-18T00:41:07;-5.10;99.90
6841;DHT22;3458;53.678;14.080;2022-12-18T00:43:32;-5.00;99.90
6841;DHT22;3458;53.678;14.080;2022-12-18T00:46:01;-5.00;99.90
6841;DHT22;3458;53.678;14.080;2022-12-18T00:48:26;-4.90;99.90
6841;DHT22;3458;53.678;14.080;2022-12-18T00:50:52;-5.00;99.90
6841;DHT22;3458;53.678;14.080;2022-12-18T00:53:18;-5.00;99.90
6841;DHT22;3458;53.678;14.080;2022-12-18T00:55:44;-5.10;99.90
6841;DHT22;3458;53.678;14.080;2022-12-18T00:58:10;-5.10;99.90
6841;DHT22;3458;53.678;14.080;2022-12-18T01:00:36;-5.10;99.90
6841;DHT22;3458;53.678;14.080;2022-12-18T01:03:02;-5.10;99.90
6841;DHT22;3458;53.678;14.080;2022-12-18T01:05:27;-5.00;99.90
6841;DHT22;3458;53.678;14.080;2022-12-18T01:07:53;-5.00;99.90
6841;DHT22;3458;53.678;14.080;2022-12-18T01:10:19;-5.10;99.90
6841;DHT22;3458;53.678;14.080;2022-12-18T01:12:45;-5.00;99.90
6841;DHT22;3458;53.678;14.080;2022-12-18T01:15:12;-5.10;99.90
6841;DHT22;3458;53.678;14.080;2022-12-18T01:17:38;-5.10;99.90
6841;DHT22;3458;53.678;14.080;2022-12-18T01:20:04;-5.10;99.90
6841;DHT22;3458;53.678;14.080;2022-12-18T01:22:30;-5.20;99.90
6841;DHT22;3458;53.678;14.080;2022-12-18T01:24:55;-5.10;99.90
6841;DHT22;3458;53.678;14.080;2022-12-18T01:27:21;-5.20;99.90
6841;DHT22;3458;53.678;14.080;2022-12-18T01:29:47;-5.20;99.90
6841;DHT22;3458;53.678;14.080;2022-12-18T01:32:12;-5.20;99.90
6841;DHT22;3458;53.678;14.080;2022-12-18T01:34:38;-5.20;99.90
6841;DHT22;3458;53.678;14.080;2022-12-18T01:37:05;-5.20;99.90
6841;DHT22;3458;53.678;14.080;2022-12-18T01:39:31;-5.20;99.90
6841;DHT22;3458;53.678;14.080;2022-12-18T01:42:02;-5.20;99.90
6841;DHT22;3458;53.678;14.080;2022-12-18T01:47:32;-5.10;99.90
6841;DHT22;3458;53.678;14.080;2022-12-18T01:50:02;-5.10;99.90
6841;DHT22;3458;53.678;14.080;2022-12-18T01:52:30;-5.10;99.90
6841;DHT22;3458;53.678;14.080;2022-12-18T01:54:57;-5.20;99.90
6841;DHT22;3458;53.678;14.080;2022-12-18T01:57:24;-5.10;99.90
6841;DHT22;3458;53.678;14.080;2022-12-18T01:59:52;-5.10;99.90
6841;DHT22;3458;53.678;14.080;2022-12-18T02:02:20;-5.10;99.90
6841;DHT22;3458;53.678;14.080;2022-12-18T02:04:45;-5.20;99.90
6841;DHT22;3458;53.678;14.080;2022-12-18T02:10:04;-5.10;99.90
6841;DHT22;3458;53.678;14.080;2022-12-18T02:12:43;-5.10;99.90
6841;DHT22;3458;53.678;14.080;2022-12-18T02:15:16;-5.10;99.90
6841;DHT22;3458;53.678;14.080;2022-12-18T02:18:13;-5.10;99.90
6841;DHT22;3458;53.678;14.080;2022-12-18T02:21:01;-5.20;99.90
6841;DHT22;3458;53.678;14.080;2022-12-18T02:26:38;-5.20;99.90
6841;DHT22;3458;53.678;14.080;2022-12-18T02:29:11;-5.20;99.90
6841;DHT22;3458;53.678;14.080;2022-12-18T02:31:49;-5.10;99.90
6841;DHT22;3458;53.678;14.080;2022-12-18T02:34:17;-5.10;99.90
6841;DHT22;3458;53.678;14.080;2022-12-18T02:36:44;-5.10;99.90
6841;DHT22;3458;53.678;14.080;2022-12-18T02:39:12;-5.10;99.90
6841;DHT22;3458;53.678;14.080;2022-12-18T02:41:39;-5.10;99.90
6841;DHT22;3458;53.678;14.080;2022-12-18T02:44:11;-5.10;99.90
6841;DHT22;3458;53.678;14.080;2022-12-18T02:46:41;-5.10;99.90
6841;DHT22;3458;53.678;14.080;2022-12-18T02:49:24;-5.20;99.90
6841;DHT22;3458;53.678;14.080;2022-12-18T02:52:13;-5.20;99.90
6841;DHT22;3458;53.678;14.080;2022-12-18T03:00:13;-5.20;99.90
6841;DHT22;3458;53.678;14.080;2022-12-18T03:02:46;-5.30;99.90
6841;DHT22;3458;53.678;14.080;2022-12-18T03:05:21;-5.30;99.90
6841;DHT22;3458;53.678;14.080;2022-12-18T03:07:56;-5.30;99.90
6841;DHT22;3458;53.678;14.080;2022-12-18T03:10:27;-5.40;99.90
6841;DHT22;3458;53.678;14.080;2022-12-18T03:13:02;-5.40;99.90
6841;DHT22;3458;53.678;14.080;2022-12-18T03:15:34;-5.30;99.90
6841;DHT22;3458;53.678;14.080;2022-12-18T03:18:06;-5.30;99.90
6841;DHT22;3458;53.678;14.080;2022-12-18T03:20:34;-5.30;99.90
6841;DHT22;3458;53.678;14.080;2022-12-18T03:23:11;-5.30;99.90
6841;DHT22;3458;53.678;14.080;2022-12-18T03:25:41;-5.30;99.90
6841;DHT22;3458;53.678;14.080;2022-12-18T03:28:12;-5.20;99.90
6841;DHT22;3458;53.678;14.080;2022-12-18T03:30:39;-5.30;99.90
6841;DHT22;3458;53.678;14.080;2022-12-18T03:33:10;-5.40;99.90
6841;DHT22;3458;53.678;14.080;2022-12-18T03:35:41;-5.40;99.90
6841;DHT22;3458;53.678;14.080;2022-12-18T03:38:08;-5.40;99.90
6841;DHT22;3458;53.678;14.080;2022-12-18T03:40:43;-5.40;99.90
6841;DHT22;3458;53.678;14.080;2022-12-18T03:43:35;-5.40;99.90
6841;DHT22;3458;53.678;14.080;2022-12-18T03:46:17;-5.40;99.90
6841;DHT22;3458;53.678;14.080;2022-12-18T03:48:55;-5.30;99.90
6841;DHT22;3458;53.678;14.080;2022-12-18T03:51:46;-5.20;99.90
6841;DHT22;3458;53.678;14.080;2022-12-18T03:54:14;-5.20;99.90
6841;DHT22;3458;53.678;14.080;2022-12-18T03:56:51;-5.20;99.90
6841;DHT22;3458;53.678;14.080;2022-12-18T03:59:20;-5.20;99.90
6841;DHT22;3458;53.678;14.080;2022-12-18T04:01:49;-5.20;99.90
6841;DHT22;3458;53.678;14.080;2022-12-18T04:04:17;-5.10;99.90
6841;DHT22;3458;53.678;14.080;2022-12-18T04:06:45;-5.20;99.90
6841;DHT22;3458;53.678;14.080;2022-12-18T04:09:12;-5.30;99.90
6841;DHT22;3458;53.678;14.080;2022-12-18T04:11:37;-5.30;99.90
6841;DHT22;3458;53.678;14.080;2022-12-18T04:14:03;-5.30;99.90
6841;DHT22;3458;53.678;14.080;2022-12-18T04:16:29;-5.30;99.90
6841;DHT22;3458;53.678;14.080;2022-12-18T04:18:54;-5.30;99.90
6841;DHT22;3458;53.678;14.080;2022-12-18T04:21:20;-5.40;99.90
6841;DHT22;3458;53.678;14.080;2022-12-18T04:23:46;-5.30;99.90
6841;DHT22;3458;53.678;14.080;2022-12-18T04:26:11;-5.30;99.90
6841;DHT22;3458;53.678;14.080;2022-12-18T04:28:37;-5.30;99.90
6841;DHT22;3458;53.678;14.080;2022-12-18T04:31:03;-5.30;99.90
6841;DHT22;3458;53.678;14.080;2022-12-18T04:33:28;-5.40;99.90
6841;DHT22;3458;53.678;14.080;2022-12-18T04:35:54;-5.40;99.90
6841;DHT22;3458;53.678;14.080;2022-12-18T04:38:19;-5.40;99.90
6841;DHT22;3458;53.678;14.080;2022-12-18T04:40:45;-5.30;99.90
6841;DHT22;3458;53.678;14.080;2022-12-18T04:43:10;-5.30;99.90
6841;DHT22;3458;53.678;14.080;2022-12-18T04:45:36;-5.30;99.90
6841;DHT22;3458;53.678;14.080;2022-12-18T04:48:03;-5.30;99.90
6841;DHT22;3458;53.678;14.080;2022-12-18T04:50:29;-5.30;99.90
6841;DHT22;3458;53.678;14.080;2022-12-18T04:52:55;-5.20;99.90
6841;DHT22;3458;53.678;14.080;2022-12-18T04:55:21;-5.20;99.90
6841;DHT22;3458;53.678;14.080;2022-12-18T04:57:49;-5.20;99.90
6841;DHT22;3458;53.678;14.080;2022-12-18T05:00:15;-5.20;99.90
6841;DHT22;3458;53.678;14.080;2022-12-18T05:02:40;-5.20;99.90
6841;DHT22;3458;53.678;14.080;2022-12-18T05:05:06;-5.20;99.90
6841;DHT22;3458;53.678;14.080;2022-12-18T05:07:32;-5.20;99.90
6841;DHT22;3458;53.678;14.080;2022-12-18T05:09:58;-5.20;99.90
6841;DHT22;3458;53.678;14.080;2022-12-18T05:12:23;-5.10;99.90
6841;DHT22;3458;53.678;14.080;2022-12-18T05:14:49;-5.20;99.90
6841;DHT22;3458;53.678;14.080;2022-12-18T05:17:14;-5.10;99.90
6841;DHT22;3458;53.678;14.080;2022-12-18T05:19:40;-5.10;99.90
6841;DHT22;3458;53.678;14.080;2022-12-18T05:22:05;-5.10;99.90
6841;DHT22;3458;53.678;14.080;2022-12-18T05:24:34;-5.10;99.90
6841;DHT22;3458;53.678;14.080;2022-12-18T05:27:00;-5.10;99.90
6841;DHT22;3458;53.678;14.080;2022-12-18T05:29:25;-5.10;99.90
6841;DHT22;3458;53.678;14.080;2022-12-18T05:31:51;-5.10;99.90
6841;DHT22;3458;53.678;14.080;2022-12-18T05:34:16;-5.20;99.90
6841;DHT22;3458;53.678;14.080;2022-12-18T05:36:42;-5.20;99.90
6841;DHT22;3458;53.678;14.080;2022-12-18T05:39:07;-5.20;99.90
6841;DHT22;3458;53.678;14.080;2022-12-18T05:41:33;-5.30;99.90
6841;DHT22;3458;53.678;14.080;2022-12-18T05:43:58;-5.30;99.90
6841;DHT22;3458;53.678;14.080;2022-12-18T05:46:24;-5.30;99.90
6841;DHT22;3458;53.678;14.080;2022-12-18T05:48:50;-5.20;99.90
6841;DHT22;3458;53.678;14.080;2022-12-18T05:51:18;-5.20;99.90
6841;DHT22;3458;53.678;14.080;2022-12-18T05:53:44;-5.30;99.90
6841;DHT22;3458;53.678;14.080;2022-12-18T05:56:17;-5.30;99.90
6841;DHT22;3458;53.678;14.080;2022-12-18T05:58:44;-5.30;99.90
6841;DHT22;3458;53.678;14.080;2022-12-18T06:01:17;-5.20;99.90
6841;DHT22;3458;53.678;14.080;2022-12-18T06:03:43;-5.20;99.90
6841;DHT22;3458;53.678;14.080;2022-12-18T06:06:18;-5.20;99.90
6841;DHT22;3458;53.678;14.080;2022-12-18T06:08:43;-5.20;99.90
6841;DHT22;3458;53.678;14.080;2022-12-18T06:11:09;-5.20;99.90
6841;DHT22;3458;53.678;14.080;2022-12-18T06:13:35;-5.20;99.90
6841;DHT22;3458;53.678;14.080;2022-12-18T06:16:05;-5.20;99.90
6841;DHT22;3458;53.678;14.080;2022-12-18T06:18:31;-5.20;99.90
6841;DHT22;3458;53.678;14.080;2022-12-18T06:20:57;-5.20;99.90
6841;DHT22;3458;53.678;14.080;2022-12-18T06:23:23;-5.20;99.90
6841;DHT22;3458;53.678;14.080;2022-12-18T06:25:48;-5.20;99.90
6841;DHT22;3458;53.678;14.080;2022-12-18T06:28:14;-5.30;99.90
6841;DHT22;3458;53.678;14.080;2022-12-18T06:30:39;-5.30;99.90
6841;DHT22;3458;53.678;14.080;2022-12-18T06:33:05;-5.30;99.90
6841;DHT22;3458;53.678;14.080;2022-12-18T06:35:32;-5.20;99.90
6841;DHT22;3458;53.678;14.080;2022-12-18T06:37:57;-5.20;99.90
6841;DHT22;3458;53.678;14.080;2022-12-18T06:40:23;-5.10;99.90
6841;DHT22;3458;53.678;14.080;2022-12-18T06:42:48;-5.00;99.90
6841;DHT22;3458;53.678;14.080;2022-12-18T06:45:14;-4.90;99.90
6841;DHT22;3458;53.678;14.080;2022-12-18T06:47:39;-4.90;99.90
6841;DHT22;3458;53.678;14.080;2022-12-18T06:50:05;-4.90;99.90
6841;DHT22;3458;53.678;14.080;2022-12-18T06:52:32;-4.90;99.90
6841;DHT22;3458;53.678;14.080;2022-12-18T06:54:57;-4.90;99.90
6841;DHT22;3458;53.678;14.080;2022-12-18T06:57:23;-4.90;99.90
6841;DHT22;3458;53.678;14.080;2022-12-18T06:59:48;-4.90;99.90
6841;DHT22;3458;53.678;14.080;2022-12-18T07:02:14;-4.90;99.90
6841;DHT22;3458;53.678;14.080;2022-12-18T07:04:40;-5.00;99.90
6841;DHT22;3458;53.678;14.080;2022-12-18T07:07:05;-5.00;99.90
6841;DHT22;3458;53.678;14.080;2022-12-18T07:09:31;-5.10;99.90
6841;DHT22;3458;53.678;14.080;2022-12-18T07:11:57;-5.10;99.90
6841;DHT22;3458;53.678;14.080;2022-12-18T07:14:22;-5.10;99.90
6841;DHT22;3458;53.678;14.080;2022-12-18T07:16:48;-5.10;99.90
6841;DHT22;3458;53.678;14.080;2022-12-18T07:19:13;-5.10;99.90
6841;DHT22;3458;53.678;14.080;2022-12-18T07:21:39;-5.20;99.90
6841;DHT22;3458;53.678;14.080;2022-12-18T07:24:05;-5.20;99.90
6841;DHT22;3458;53.678;14.080;2022-12-18T07:26:30;-5.30;99.90
6841;DHT22;3458;53.678;14.080;2022-12-18T07:28:56;-5.30;99.90
6841;DHT22;3458;53.678;14.080;2022-12-18T07:31:23;-5.30;99.90
6841;DHT22;3458;53.678;14.080;2022-12-18T07:33:50;-5.30;99.90
6841;DHT22;3458;53.678;14.080;2022-12-18T07:36:16;-5.30;99.90
6841;DHT22;3458;53.678;14.080;2022-12-18T07:38:42;-5.30;99.90
6841;DHT22;3458;53.678;14.080;2022-12-18T07:41:12;-5.20;99.90
6841;DHT22;3458;53.678;14.080;2022-12-18T07:43:38;-5.10;99.90
6841;DHT22;3458;53.678;14.080;2022-12-18T07:46:04;-5.20;99.90
6841;DHT22;3458;53.678;14.080;2022-12-18T07:48:30;-5.20;99.90
6841;DHT22;3458;53.678;14.080;2022-12-18T07:51:04;-5.30;99.90
6841;DHT22;3458;53.678;14.080;2022-12-18T07:53:30;-5.30;99.90
6841;DHT22;3458;53.678;14.080;2022-12-18T07:55:57;-5.20;99.90
6841;DHT22;3458;53.678;14.080;2022-12-18T07:58:23;-5.20;99.90
6841;DHT22;3458;53.678;14.080;2022-12-18T08:00:49;-5.20;99.90
6841;DHT22;3458;53.678;14.080;2022-12-18T08:03:14;-5.20;99.90
6841;DHT22;3458;53.678;14.080;2022-12-18T08:05:40;-5.20;99.90
6841;DHT22;3458;53.678;14.080;2022-12-18T08:08:05;-5.20;99.90
6841;DHT22;3458;53.678;14.080;2022-12-18T08:10:31;-5.20;99.90
6841;DHT22;3458;53.678;14.080;2022-12-18T08:12:57;-5.20;99.90
6841;DHT22;3458;53.678;14.080;2022-12-18T08:15:23;-5.10;99.90
6841;DHT22;3458;53.678;14.080;2022-12-18T08:17:49;-5.10;99.90
6841;DHT22;3458;53.678;14.080;2022-12-18T08:20:14;-5.10;99.90
6841;DHT22;3458;53.678;14.080;2022-12-18T08:22:41;-5.10;99.90
6841;DHT22;3458;53.678;14.080;2022-12-18T08:25:07;-5.10;99.90
6841;DHT22;3458;53.678;14.080;2022-12-18T08:27:33;-5.10;99.90
6841;DHT22;3458;53.678;14.080;2022-12-18T08:29:59;-5.10;99.90
6841;DHT22;3458;53.678;14.080;2022-12-18T08:32:25;-5.00;99.90
6841;DHT22;3458;53.678;14.080;2022-12-18T08:34:51;-5.10;99.90
6841;DHT22;3458;53.678;14.080;2022-12-18T08:37:17;-5.00;99.90
6841;DHT22;3458;53.678;14.080;2022-12-18T08:39:42;-5.00;99.90
6841;DHT22;3458;53.678;14.080;2022-12-18T08:42:08;-5.00;99.90
6841;DHT22;3458;53.678;14.080;2022-12-18T08:44:52;-5.00;99.90
6841;DHT22;3458;53.678;14.080;2022-12-18T08:47:17;-4.90;99.90
6841;DHT22;3458;53.678;14.080;2022-12-18T08:49:43;-5.00;99.90
6841;DHT22;3458;53.678;14.080;2022-12-18T08:52:08;-5.00;99.90
6841;DHT22;3458;53.678;14.080;2022-12-18T08:54:34;-5.00;99.90
6841;DHT22;3458;53.678;14.080;2022-12-18T08:56:59;-5.00;99.90
6841;DHT22;3458;53.678;14.080;2022-12-18T08:59:25;-5.00;99.90
6841;DHT22;3458;53.678;14.080;2022-12-18T09:01:53;-5.00;99.90
6841;DHT22;3458;53.678;14.080;2022-12-18T09:04:19;-5.00;99.90
6841;DHT22;3458;53.678;14.080;2022-12-18T09:06:45;-5.00;99.90
6841;DHT22;3458;53.678;14.080;2022-12-18T09:09:10;-5.00;99.90
6841;DHT22;3458;53.678;14.080;2022-12-18T09:11:36;-5.00;99.90
6841;DHT22;3458;53.678;14.080;2022-12-18T09:14:02;-5.00;99.90
6841;DHT22;3458;53.678;14.080;2022-12-18T09:16:28;-5.00;99.90
6841;DHT22;3458;53.678;14.080;2022-12-18T09:18:55;-5.00;99.90
6841;DHT22;3458;53.678;14.080;2022-12-18T09:21:25;-5.00;99.90
6841;DHT22;3458;53.678;14.080;2022-12-18T09:23:52;-4.90;99.90
6841;DHT22;3458;53.678;14.080;2022-12-18T09:26:18;-4.80;99.90
6841;DHT22;3458;53.678;14.080;2022-12-18T09:28:44;-4.80;99.90
6841;DHT22;3458;53.678;14.080;2022-12-18T09:31:12;-4.90;99.90
6841;DHT22;3458;53.678;14.080;2022-12-18T09:33:41;-4.90;99.90
6841;DHT22;3458;53.678;14.080;2022-12-18T09:36:08;-4.90;99.90
6841;DHT22;3458;53.678;14.080;2022-12-18T09:38:34;-4.80;99.90
6841;DHT22;3458;53.678;14.080;2022-12-18T09:43:52;-4.70;99.90
6841;DHT22;3458;53.678;14.080;2022-12-18T09:46:25;-4.60;99.90
6841;DHT22;3458;53.678;14.080;2022-12-18T09:48:55;-4.50;99.90
6841;DHT22;3458;53.678;14.080;2022-12-18T09:52:02;-4.50;99.90
6841;DHT22;3458;53.678;14.080;2022-12-18T09:54:36;-4.50;99.90
6841;DHT22;3458;53.678;14.080;2022-12-18T09:57:04;-4.50;99.90
6841;DHT22;3458;53.678;14.080;2022-12-18T09:59:38;-4.60;99.90
6841;DHT22;3458;53.678;14.080;2022-12-18T10:02:19;-4.60;99.90
6841;DHT22;3458;53.678;14.080;2022-12-18T10:05:02;-4.60;99.90
6841;DHT22;3458;53.678;14.080;2022-12-18T10:07:41;-4.50;99.90
6841;DHT22;3458;53.678;14.080;2022-12-18T10:13:07;-4.60;99.90
6841;DHT22;3458;53.678;14.080;2022-12-18T10:21:49;-4.50;99.90
6841;DHT22;3458;53.678;14.080;2022-12-18T10:27:21;-4.40;99.90
6841;DHT22;3458;53.678;14.080;2022-12-18T10:29:47;-4.30;99.90
6841;DHT22;3458;53.678;14.080;2022-12-18T10:32:22;-4.20;99.90
6841;DHT22;3458;53.678;14.080;2022-12-18T10:34:52;-4.20;99.90
6841;DHT22;3458;53.678;14.080;2022-12-18T10:37:21;-4.20;99.90
6841;DHT22;3458;53.678;14.080;2022-12-18T10:40:10;-4.20;99.90
6841;DHT22;3458;53.678;14.080;2022-12-18T10:42:37;-4.20;99.90
6841;DHT22;3458;53.678;14.080;2022-12-18T10:45:14;-4.10;99.90
6841;DHT22;3458;53.678;14.080;2022-12-18T10:47:49;-4.10;99.90
6841;DHT22;3458;53.678;14.080;2022-12-18T10:50:31;-4.00;99.90
6841;DHT22;3458;53.678;14.080;2022-12-18T10:53:00;-4.10;99.90
6841;DHT22;3458;53.678;14.080;2022-12-18T10:55:38;-4.00;99.90
6841;DHT22;3458;53.678;14.080;2022-12-18T11:03:35;-3.80;99.90
6841;DHT22;3458;53.678;14.080;2022-12-18T11:06:14;-3.70;99.90
6841;DHT22;3458;53.678;14.080;2022-12-18T11:08:42;-3.80;99.90
6841;DHT22;3458;53.678;14.080;2022-12-18T11:11:20;-3.80;99.90
6841;DHT22;3458;53.678;14.080;2022-12-18T11:14:14;-3.90;99.90
6841;DHT22;3458;53.678;14.080;2022-12-18T11:16:46;-3.90;99.90
6841;DHT22;3458;53.678;14.080;2022-12-18T11:19:34;-3.90;99.90
6841;DHT22;3458;53.678;14.080;2022-12-18T11:22:03;-3.80;99.90
6841;DHT22;3458;53.678;14.080;2022-12-18T11:24:42;-3.80;99.90
6841;DHT22;3458;53.678;14.080;2022-12-18T11:27:17;-3.80;99.90
6841;DHT22;3458;53.678;14.080;2022-12-18T11:29:43;-3.70;99.90
6841;DHT22;3458;53.678;14.080;2022-12-18T11:34:46;-3.70;99.90
6841;DHT22;3458;53.678;14.080;2022-12-18T11:37:15;-3.70;99.90
6841;DHT22;3458;53.678;14.080;2022-12-18T11:40:06;-3.70;99.90
6841;DHT22;3458;53.678;14.080;2022-12-18T11:42:58;-3.70;99.90
6841;DHT22;3458;53.678;14.080;2022-12-18T11:45:32;-3.70;99.90
6841;DHT22;3458;53.678;14.080;2022-12-18T11:50:46;-3.70;99.90
6841;DHT22;3458;53.678;14.080;2022-12-18T11:53:13;-3.80;99.90
6841;DHT22;3458;53.678;14.080;2022-12-18T11:58:37;-3.90;99.90
6841;DHT22;3458;53.678;14.080;2022-12-18T12:01:17;-3.90;99.90
6841;DHT22;3458;53.678;14.080;2022-12-18T12:06:34;-4.00;99.90
6841;DHT22;3458;53.678;14.080;2022-12-18T12:09:39;-4.00;99.90
6841;DHT22;3458;53.678;14.080;2022-12-18T12:12:25;-3.90;99.90
6841;DHT22;3458;53.678;14.080;2022-12-18T12:15:34;-3.90;99.90
6841;DHT22;3458;53.678;14.080;2022-12-18T12:18:16;-3.90;99.90
6841;DHT22;3458;53.678;14.080;2022-12-18T12:23:50;-3.80;99.90
6841;DHT22;3458;53.678;14.080;2022-12-18T12:26:29;-3.80;99.90
6841;DHT22;3458;53.678;14.080;2022-12-18T12:32:07;-3.80;99.90
6841;DHT22;3458;53.678;14.080;2022-12-18T12:37:41;-3.90;99.90
6841;DHT22;3458;53.678;14.080;2022-12-18T12:40:17;-3.80;99.90
6841;DHT22;3458;53.678;14.080;2022-12-18T12:42:52;-3.80;99.90
6841;DHT22;3458;53.678;14.080;2022-12-18T12:46:06;-3.90;99.90
6841;DHT22;3458;53.678;14.080;2022-12-18T12:48:54;-3.90;99.90
6841;DHT22;3458;53.678;14.080;2022-12-18T12:51:25;-3.90;99.90
6841;DHT22;3458;53.678;14.080;2022-12-18T12:53:52;-3.90;99.90
6841;DHT22;3458;53.678;14.080;2022-12-18T12:56:19;-4.00;99.90
6841;DHT22;3458;53.678;14.080;2022-12-18T12:59:05;-4.00;99.90
6841;DHT22;3458;53.678;14.080;2022-12-18T13:02:06;-4.00;99.90
6841;DHT22;3458;53.678;14.080;2022-12-18T13:04:51;-4.00;99.90
6841;DHT22;3458;53.678;14.080;2022-12-18T13:07:29;-4.00;99.90
6841;DHT22;3458;53.678;14.080;2022-12-18T13:13:10;-4.00;99.90
6841;DHT22;3458;53.678;14.080;2022-12-18T13:15:48;-4.00;99.90
6841;DHT22;3458;53.678;14.080;2022-12-18T13:18:22;-4.00;99.90
6841;DHT22;3458;53.678;14.080;2022-12-18T13:25:54;-4.00;99.90
6841;DHT22;3458;53.678;14.080;2022-12-18T13:31:12;-3.90;99.90
6841;DHT22;3458;53.678;14.080;2022-12-18T13:33:43;-3.90;99.90
6841;DHT22;3458;53.678;14.080;2022-12-18T13:36:14;-4.00;99.90
6841;DHT22;3458;53.678;14.080;2022-12-18T13:38:41;-4.00;99.90
6841;DHT22;3458;53.678;14.080;2022-12-18T13:41:24;-4.00;99.90
6841;DHT22;3458;53.678;14.080;2022-12-18T13:43:53;-4.10;99.90
6841;DHT22;3458;53.678;14.080;2022-12-18T13:46:30;-4.10;99.90
6841;DHT22;3458;53.678;14.080;2022-12-18T13:51:41;-4.10;99.90
6841;DHT22;3458;53.678;14.080;2022-12-18T13:54:40;-4.10;99.90
6841;DHT22;3458;53.678;14.080;2022-12-18T13:57:05;-4.10;99.90
6841;DHT22;3458;53.678;14.080;2022-12-18T13:59:38;-4.10;99.90
6841;DHT22;3458;53.678;14.080;2022-12-18T14:02:25;-4.10;99.90
6841;DHT22;3458;53.678;14.080;2022-12-18T14:04:52;-4.10;99.90
6841;DHT22;3458;53.678;14.080;2022-12-18T14:07:28;-4.10;99.90
6841;DHT22;3458;53.678;14.080;2022-12-18T14:09:55;-4.10;99.90
6841;DHT22;3458;53.678;14.080;2022-12-18T14:12:26;-4.20;99.90
6841;DHT22;3458;53.678;14.080;2022-12-18T14:17:57;-4.20;99.90
6841;DHT22;3458;53.678;14.080;2022-12-18T14:20:25;-4.30;99.90
6841;DHT22;3458;53.678;14.080;2022-12-18T14:22:51;-4.30;99.90
6841;DHT22;3458;53.678;14.080;2022-12-18T14:25:25;-4.30;99.90
6841;DHT22;3458;53.678;14.080;2022-12-18T14:27:53;-4.30;99.90
6841;DHT22;3458;53.678;14.080;2022-12-18T14:30:32;-4.20;99.90
6841;DHT22;3458;53.678;14.080;2022-12-18T14:35:37;-4.20;99.90
6841;DHT22;3458;53.678;14.080;2022-12-18T14:38:18;-4.30;99.90
6841;DHT22;3458;53.678;14.080;2022-12-18T14:40:44;-4.20;99.90
6841;DHT22;3458;53.678;14.080;2022-12-18T14:43:11;-4.30;99.90
6841;DHT22;3458;53.678;14.080;2022-12-18T14:45:38;-4.30;99.90
6841;DHT22;3458;53.678;14.080;2022-12-18T14:48:40;-4.30;99.90
6841;DHT22;3458;53.678;14.080;2022-12-18T14:51:20;-4.20;99.90
6841;DHT22;3458;53.678;14.080;2022-12-18T14:53:48;-4.20;99.90
6841;DHT22;3458;53.678;14.080;2022-12-18T14:58:53;-4.20;99.90
6841;DHT22;3458;53.678;14.080;2022-12-18T15:01:37;-4.20;99.90
6841;DHT22;3458;53.678;14.080;2022-12-18T15:04:04;-4.10;99.90
6841;DHT22;3458;53.678;14.080;2022-12-18T15:06:43;-4.20;99.90
6841;DHT22;3458;53.678;14.080;2022-12-18T15:09:25;-4.20;99.90
6841;DHT22;3458;53.678;14.080;2022-12-18T15:11:57;-4.20;99.90
6841;DHT22;3458;53.678;14.080;2022-12-18T15:16:54;-4.20;99.90
6841;DHT22;3458;53.678;14.080;2022-12-18T15:19:22;-4.20;99.90
6841;DHT22;3458;53.678;14.080;2022-12-18T15:21:50;-4.20;99.90
6841;DHT22;3458;53.678;14.080;2022-12-18T15:24:22;-4.20;99.90
6841;DHT22;3458;53.678;14.080;2022-12-18T15:26:49;-4.20;99.90
6841;DHT22;3458;53.678;14.080;2022-12-18T15:29:20;-4.20;99.90
6841;DHT22;3458;53.678;14.080;2022-12-18T15:32:19;-4.20;99.90
6841;DHT22;3458;53.678;14.080;2022-12-18T15:34:45;-4.20;99.90
6841;DHT22;3458;53.678;14.080;2022-12-18T15:37:10;-4.20;99.90
6841;DHT22;3458;53.678;14.080;2022-12-18T15:39:36;-4.20;99.90
6841;DHT22;3458;53.678;14.080;2022-12-18T15:42:01;-4.20;99.90
6841;DHT22;3458;53.678;14.080;2022-12-18T15:44:46;-4.20;99.90
6841;DHT22;3458;53.678;14.080;2022-12-18T15:47:12;-4.20;99.90
6841;DHT22;3458;53.678;14.080;2022-12-18T15:49:38;-4.20;99.90
6841;DHT22;3458;53.678;14.080;2022-12-18T15:52:03;-4.20;99.90
6841;DHT22;3458;53.678;14.080;2022-12-18T15:54:29;-4.20;99.90
6841;DHT22;3458;53.678;14.080;2022-12-18T15:57:13;-4.20;99.90
6841;DHT22;3458;53.678;14.080;2022-12-18T15:59:48;-4.20;99.90
6841;DHT22;3458;53.678;14.080;2022-12-18T16:02:16;-4.20;99.90
6841;DHT22;3458;53.678;14.080;2022-12-18T16:04:43;-4.20;99.90
6841;DHT22;3458;53.678;14.080;2022-12-18T16:07:09;-4.20;99.90
6841;DHT22;3458;53.678;14.080;2022-12-18T16:09:36;-4.20;99.90
6841;DHT22;3458;53.678;14.080;2022-12-18T16:12:01;-4.30;99.90
6841;DHT22;3458;53.678;14.080;2022-12-18T16:14:29;-4.30;99.90
6841;DHT22;3458;53.678;14.080;2022-12-18T16:17:08;-4.30;99.90
6841;DHT22;3458;53.678;14.080;2022-12-18T16:19:34;-4.30;99.90
6841;DHT22;3458;53.678;14.080;2022-12-18T16:21:59;-4.30;99.90
6841;DHT22;3458;53.678;14.080;2022-12-18T16:24:30;-4.30;99.90
6841;DHT22;3458;53.678;14.080;2022-12-18T16:26:58;-4.30;99.90
6841;DHT22;3458;53.678;14.080;2022-12-18T16:29:25;-4.20;99.90
6841;DHT22;3458;53.678;14.080;2022-12-18T16:31:56;-4.20;99.90
6841;DHT22;3458;53.678;14.080;2022-12-18T16:34:24;-4.20;99.90
6841;DHT22;3458;53.678;14.080;2022-12-18T16:36:56;-4.20;99.90
6841;DHT22;3458;53.678;14.080;2022-12-18T16:39:23;-4.20;99.90
6841;DHT22;3458;53.678;14.080;2022-12-18T16:41:48;-4.20;99.90
6841;DHT22;3458;53.678;14.080;2022-12-18T16:44:14;-4.20;99.90
6841;DHT22;3458;53.678;14.080;2022-12-18T16:46:40;-4.10;99.90
6841;DHT22;3458;53.678;14.080;2022-12-18T16:49:09;-4.10;99.90
6841;DHT22;3458;53.678;14.080;2022-12-18T16:51:35;-4.20;99.90
6841;DHT22;3458;53.678;14.080;2022-12-18T16:54:01;-4.20;99.90
6841;DHT22;3458;53.678;14.080;2022-12-18T16:56:26;-4.20;99.90
6841;DHT22;3458;53.678;14.080;2022-12-18T16:58:53;-4.20;99.90
6841;DHT22;3458;53.678;14.080;2022-12-18T17:01:19;-4.20;99.90
6841;DHT22;3458;53.678;14.080;2022-12-18T17:03:51;-4.20;99.90
6841;DHT22;3458;53.678;14.080;2022-12-18T17:06:17;-4.30;99.90
6841;DHT22;3458;53.678;14.080;2022-12-18T17:08:42;-4.30;99.90
6841;DHT22;3458;53.678;14.080;2022-12-18T17:11:08;-4.30;99.90
6841;DHT22;3458;53.678;14.080;2022-12-18T17:13:34;-4.30;99.90
6841;DHT22;3458;53.678;14.080;2022-12-18T17:16:06;-4.30;99.90
6841;DHT22;3458;53.678;14.080;2022-12-18T17:18:33;-4.30;99.90
6841;DHT22;3458;53.678;14.080;2022-12-18T17:21:03;-4.30;99.90
6841;DHT22;3458;53.678;14.080;2022-12-18T17:23:29;-4.30;99.90